Relevés horaires Melle (Belgique)


Relevés horaires à Melle - Mardi 01 Déc. 2015
Heure UTC1 Température [°C] Vent [km/h] Hum. [%] Pres.4 [hPa] Visi. [Km] Nébu. [octa] Préc.5 [mm] Cond.
2m. Res. Ros. Dir.2 Vit. Moy. Raf.3
23:00 11.8 11.2 9.0 SO 7.4 9.3 14.8 83 1027.9(0.1/3h) -- -- -- --
22:00 11.9 11.4 9.3 SO 7.4 -- 13.0 84 1027.8(0.3/3h) -- -- -- --
21:00 12.2 11.4 9.2 OSO 9.3 11.1 16.7 82 1027.8(0.7/3h) -- -- -- --
20:00 12.4 11.6 9.6 OSO 9.3 11.1 16.7 83 1027.8(1.1/3h) -- -- -- --
19:00 12.5 11.7 9.9 OSO 9.3 9.3 16.7 84 1027.5(1.3/3h) -- -- -- --
18:00 12.3 11.5 9.8 OSO 9.3 13.0 22.2 85 1027.1(1.0/3h) -- -- 0.8/12h
--
17:00 12.6 12.2 9.7 OSO 7.4 9.3 14.8 82 1026.7(0.9/3h) -- -- -- --
16:00 12.9 12.2 9.5 OSO 9.3 11.1 22.2 80 1026.2(0.6/3h) -- -- -- --
15:00 13.4 12.5 10.3 OSO 11.1 13.0 20.4 81 1026.1(0.6/3h) -- -- -- --
14:00 13.3 12.4 10.8 O 11.1 11.1 18.5 85 1025.8(0.5/3h) -- -- -- --
13:00 13.3 12.7 11.0 O 9.3 13.0 20.4 86 1025.6(1.0/3h) -- -- -- --
12:00 13.4 12.5 11.1 O 11.1 14.8 22.2 86 1025.5(1.4/3h) -- -- 0.8/6h
--
11:00 12.8 11.6 11.5 O 13.0 13.0 22.2 92 1025.3(1.4/3h) -- -- -- --
10:00 12.9 11.9 12.1 OSO 11.1 11.1 16.7 95 1024.6(1.5/3h) -- -- -- --
09:00 11.8 11.6 11.2 OSO 5.6 5.6 9.3 96 1024.1(1.4/3h) -- -- -- --
08:00 10.0 10.0 9.3 S 1.9 1.9 1.9 95 1023.9(1.6/3h) -- -- -- --
07:00 9.9 9.9 9.2 S 1.9 1.9 1.9 95 1023.1(1.5/3h) -- -- -- --
06:00 9.9 9.9 9.1 O 1.9 16.7 24.1 95 1022.7(1.7/3h) -- -- 8/12h
--
05:00 9.9 9.9 9.1 ONO 1.9 3.7 3.7 95 1022.3(1.7/3h) -- -- -- --
04:00 10.0 10.0 9.1 NO 3.7 3.7 5.6 94 1021.6(2.2/3h) -- -- -- --
03:00 10.3 10.3 9.3 ONO 3.7 16.7 24.1 94 1021(2.2/3h) -- -- -- --
02:00 10.7 10 9.5 NNO 7.4 13.0 18.5 92 1020.6(2.6/3h) -- -- -- --
01:00 13.1 12.2 11.1 O 11.1 16.7 24.1 88 1019.4(1.7/3h) -- -- -- --
00:00 13.5 12.2 11.1 O 14.8 18.5 29.6 85 1018.8(1.9/3h) -- -- 3/6h
--

1 Coordinated Universal Time. Actuellement il est 13:00 locale et 11:00 UTC.

2 Le vent souffle depuis la direction indiquée vers la direction oposée.

3 Les rafales max. sont disponible 40 min après l'heure du relevé.

4 Pour les stations d'altitude (plus de 600m) le géopotentiel du niveau le plus proche de la pression obligatoire est indiqué.

5 Les stations disposant d'un diffuseur peuvent indiquer "trace". Cela signifie que des précipitations ont touchés le sol mais que la quantité est inférieure à 0.1 mm.

Récapitulatif de la journée
Température [°C] Vent [km/h] Ensoleillement4 [h] Precipitations totale5 [mm] Pression [Hpa]
Min1 Max.2 Moy.3 Max. Min Max.
9.9 13.5 10.8 29.6 0 h 0 min 0 1018.8 1027.9

1 Température minimale relevée entre 18:00 UTC la veille et 18:00 UTC le jour donné.

2 Température maximale relevée entre 06:00 UTC le jour donné et 06:00 UTC le lendemain.

3 Vent moyen de la journée basé sur les relevés horaires.

4 Ensoleillement en heures relevé entre 06:00 UTC la veille et 06:00 UTC le jour donné.

5 Précipitations totales tombées entre 06:00 UTC la jour donné et 06:00 UTC le lendemain.

Graphiques horaires